createdAt,value
2023-05-17T00:00:02.601Z,70.00
2023-05-17T00:01:03.220Z,70.00
2023-05-17T00:02:03.459Z,69.00
2023-05-17T00:03:02.865Z,69.00
2023-05-17T00:04:03.427Z,69.00
2023-05-17T00:05:03.458Z,70.00
2023-05-17T00:06:03.088Z,70.00
2023-05-17T00:07:02.884Z,70.00
2023-05-17T00:08:03.019Z,71.00
2023-05-17T00:09:02.607Z,70.00
2023-05-17T00:10:02.614Z,69.00
2023-05-17T00:11:03.107Z,70.00
2023-05-17T00:12:02.681Z,69.00
2023-05-17T00:13:03.158Z,69.00
2023-05-17T00:14:03.325Z,70.00
2023-05-17T00:15:03.137Z,71.00
2023-05-17T00:16:03.230Z,71.00
2023-05-17T00:17:03.421Z,70.00
2023-05-17T00:18:03.128Z,70.00
2023-05-17T00:19:02.989Z,71.00
2023-05-17T00:20:02.945Z,71.00
2023-05-17T00:21:03.673Z,70.00
2023-05-17T00:22:03.963Z,70.00
2023-05-17T00:23:03.668Z,71.00
2023-05-17T00:24:03.495Z,72.00
2023-05-17T00:25:03.397Z,72.00
2023-05-17T00:26:03.117Z,73.00
2023-05-17T00:27:03.025Z,73.00
2023-05-17T00:28:02.872Z,72.00
2023-05-17T00:29:03.013Z,73.00
2023-05-17T00:30:02.833Z,72.00
2023-05-17T00:31:03.648Z,72.00
2023-05-17T00:32:03.489Z,71.00
2023-05-17T00:33:03.335Z,71.00
2023-05-17T00:34:03.558Z,71.00
2023-05-17T00:35:03.487Z,70.00
2023-05-17T00:36:03.054Z,69.00
2023-05-17T00:37:02.651Z,70.00
2023-05-17T00:38:03.219Z,70.00
2023-05-17T00:39:03.118Z,70.00
2023-05-17T00:40:02.727Z,70.00
2023-05-17T00:41:02.685Z,69.00
2023-05-17T00:42:03.234Z,70.00
2023-05-17T00:43:03.244Z,71.00
2023-05-17T00:44:03.246Z,71.00
2023-05-17T00:45:02.932Z,73.00
2023-05-17T00:46:03.826Z,72.00
2023-05-17T00:47:03.456Z,72.00
2023-05-17T00:48:03.544Z,72.00
2023-05-17T00:49:03.644Z,72.00
2023-05-17T00:50:03.515Z,72.00
2023-05-17T00:51:03.864Z,72.00
2023-05-17T00:52:03.438Z,72.00
2023-05-17T00:53:03.412Z,72.00
2023-05-17T00:54:03.569Z,72.00
2023-05-17T00:55:03.390Z,72.00
2023-05-17T00:56:03.261Z,73.00
2023-05-17T00:57:03.125Z,73.00
2023-05-17T00:58:03.030Z,73.00
2023-05-17T00:59:02.860Z,73.00
2023-05-17T01:00:02.754Z,73.00
2023-05-17T01:01:01.712Z,74.00
2023-05-17T01:02:02.196Z,75.00
2023-05-17T01:03:02.214Z,74.00
2023-05-17T01:04:01.799Z,74.00
2023-05-17T01:05:02.106Z,73.00
2023-05-17T01:06:02.463Z,73.00
2023-05-17T01:07:02.333Z,73.00
2023-05-17T01:08:02.804Z,73.00
2023-05-17T01:09:02.745Z,73.00
2023-05-17T01:10:02.505Z,73.00
2023-05-17T01:11:02.298Z,73.00
2023-05-17T01:12:02.907Z,74.00
2023-05-17T01:13:02.768Z,76.00
2023-05-17T01:14:02.669Z,75.00
2023-05-17T01:15:02.546Z,74.00
2023-05-17T01:16:02.424Z,74.00
2023-05-17T01:17:03.030Z,74.00
2023-05-17T01:18:02.675Z,73.00
2023-05-17T01:19:02.661Z,73.00
2023-05-17T01:20:02.996Z,73.00
2023-05-17T01:21:01.658Z,73.00
2023-05-17T01:22:01.711Z,72.00
2023-05-17T01:23:02.136Z,72.00
2023-05-17T01:24:02.021Z,72.00
2023-05-17T01:25:02.159Z,72.00
2023-05-17T01:26:01.898Z,71.00
2023-05-17T01:27:01.993Z,71.00
2023-05-17T01:28:01.860Z,71.00
2023-05-17T01:29:02.144Z,73.00
2023-05-17T01:30:02.245Z,74.00
2023-05-17T01:31:01.998Z,73.00
2023-05-17T01:32:02.212Z,74.00
2023-05-17T01:33:02.318Z,73.00
2023-05-17T01:34:02.337Z,72.00
2023-05-17T01:35:02.256Z,73.00
2023-05-17T01:36:01.755Z,74.00
2023-05-17T01:37:02.279Z,74.00
2023-05-17T01:38:01.677Z,73.00
2023-05-17T01:39:01.823Z,72.00
2023-05-17T01:40:01.657Z,72.00
2023-05-17T01:41:01.935Z,71.00
2023-05-17T01:42:02.564Z,72.00
2023-05-17T01:43:02.381Z,72.00
2023-05-17T01:44:02.000Z,71.00
2023-05-17T01:45:02.492Z,71.00
2023-05-17T01:46:02.076Z,70.00
2023-05-17T01:47:02.594Z,70.00
2023-05-17T01:48:02.229Z,69.00
2023-05-17T01:49:02.009Z,70.00
2023-05-17T01:50:02.552Z,70.00
2023-05-17T01:51:02.449Z,69.00
2023-05-17T01:52:02.588Z,70.00
2023-05-17T01:53:02.448Z,72.00
2023-05-17T01:54:02.997Z,72.00
2023-05-17T01:55:02.670Z,72.00
2023-05-17T01:56:01.565Z,73.00
2023-05-17T01:57:02.020Z,74.00
2023-05-17T01:58:01.715Z,75.00
2023-05-17T01:59:01.614Z,76.00
2023-05-17T02:00:01.639Z,76.00
2023-05-17T02:01:02.719Z,76.00
2023-05-17T02:02:02.536Z,76.00
2023-05-17T02:03:03.082Z,76.00
2023-05-17T02:04:02.798Z,76.00
2023-05-17T02:05:02.985Z,76.00
2023-05-17T02:06:02.817Z,75.00
2023-05-17T02:07:03.034Z,75.00
2023-05-17T02:08:02.928Z,75.00
2023-05-17T02:09:02.892Z,75.00
2023-05-17T02:10:02.898Z,74.00
2023-05-17T02:11:02.914Z,73.00
2023-05-17T02:12:03.344Z,73.00
2023-05-17T02:13:02.896Z,73.00
2023-05-17T02:14:03.519Z,73.00
2023-05-17T02:15:03.075Z,75.00
2023-05-17T02:16:02.554Z,76.00
2023-05-17T02:17:02.388Z,75.00
2023-05-17T02:18:03.005Z,76.00
2023-05-17T02:19:02.517Z,77.00
2023-05-17T02:20:02.392Z,76.00
2023-05-17T02:21:03.226Z,77.00
2023-05-17T02:22:03.656Z,78.00
2023-05-17T02:23:03.319Z,78.00
2023-05-17T02:24:03.479Z,78.00
2023-05-17T02:25:03.317Z,79.00
2023-05-17T02:26:03.367Z,79.00
2023-05-17T02:27:03.256Z,78.00
2023-05-17T02:28:03.555Z,78.00
2023-05-17T02:29:03.450Z,77.00
2023-05-17T02:30:03.257Z,76.00
2023-05-17T02:31:02.711Z,76.00
2023-05-17T02:32:02.707Z,76.00
2023-05-17T02:33:03.146Z,76.00
2023-05-17T02:34:03.245Z,76.00
2023-05-17T02:35:02.860Z,76.00
2023-05-17T02:36:02.767Z,76.00
2023-05-17T02:37:02.684Z,76.00
2023-05-17T02:38:02.788Z,77.00
2023-05-17T02:39:02.826Z,77.00
2023-05-17T02:40:02.702Z,77.00
2023-05-17T02:41:03.281Z,77.00
2023-05-17T02:42:03.566Z,77.00
2023-05-17T02:43:03.561Z,77.00
2023-05-17T02:44:03.505Z,78.00
2023-05-17T02:45:03.273Z,79.00
2023-05-17T02:46:03.099Z,79.00
2023-05-17T02:47:03.064Z,78.00
2023-05-17T02:48:02.859Z,78.00
2023-05-17T02:49:03.172Z,78.00
2023-05-17T02:50:02.652Z,78.00
2023-05-17T02:51:03.172Z,78.00
2023-05-17T02:52:03.103Z,78.00
2023-05-17T02:53:02.957Z,77.00
2023-05-17T02:54:03.031Z,77.00
2023-05-17T02:55:03.502Z,77.00
2023-05-17T02:56:03.348Z,76.00
2023-05-17T02:57:03.238Z,76.00
2023-05-17T02:58:03.425Z,76.00
2023-05-17T02:59:03.652Z,75.00
2023-05-17T03:00:03.707Z,76.00
2023-05-17T03:01:02.579Z,77.00
2023-05-17T03:02:02.775Z,78.00
2023-05-17T03:03:02.681Z,79.00
2023-05-17T03:04:02.571Z,79.00
2023-05-17T03:05:02.297Z,80.00
2023-05-17T03:06:02.049Z,80.00
2023-05-17T03:07:01.946Z,80.00
2023-05-17T03:08:01.835Z,80.00
2023-05-17T03:09:01.722Z,80.00
2023-05-17T03:10:02.132Z,80.00
2023-05-17T03:11:02.075Z,80.00
2023-05-17T03:12:01.922Z,79.00
2023-05-17T03:13:01.789Z,79.00
2023-05-17T03:14:01.640Z,79.00
2023-05-17T03:15:02.161Z,79.00
2023-05-17T03:16:02.542Z,78.00
2023-05-17T03:17:02.480Z,78.00
2023-05-17T03:18:02.540Z,78.00
2023-05-17T03:19:02.708Z,77.00
2023-05-17T03:20:02.295Z,77.00
2023-05-17T03:21:02.159Z,77.00
2023-05-17T03:22:02.246Z,77.00
2023-05-17T03:23:01.919Z,76.00
2023-05-17T03:24:01.882Z,76.00
2023-05-17T03:25:01.769Z,76.00
2023-05-17T03:26:02.509Z,76.00
2023-05-17T03:27:02.575Z,76.00
2023-05-17T03:28:02.108Z,76.00
2023-05-17T03:29:02.123Z,75.00
2023-05-17T03:30:02.672Z,76.00
2023-05-17T03:31:02.152Z,76.00
2023-05-17T03:32:01.825Z,76.00
2023-05-17T03:33:01.852Z,76.00
2023-05-17T03:34:02.100Z,76.00
2023-05-17T03:35:02.044Z,77.00
2023-05-17T03:36:02.700Z,77.00
2023-05-17T03:37:02.434Z,77.00
2023-05-17T03:38:02.648Z,78.00
2023-05-17T03:39:02.698Z,78.00
2023-05-17T03:40:02.657Z,79.00
2023-05-17T03:41:02.390Z,79.00
2023-05-17T03:42:01.932Z,79.00
2023-05-17T03:43:02.139Z,79.00
2023-05-17T03:44:02.159Z,79.00
2023-05-17T03:45:02.126Z,79.00
2023-05-17T03:46:02.506Z,78.00
2023-05-17T03:47:02.202Z,78.00
2023-05-17T03:48:02.215Z,77.00
2023-05-17T03:49:02.164Z,77.00
2023-05-17T03:50:02.225Z,77.00
2023-05-17T03:51:02.811Z,77.00
2023-05-17T03:52:02.766Z,77.00
2023-05-17T03:53:02.504Z,76.00
2023-05-17T03:54:02.650Z,76.00
2023-05-17T03:55:02.562Z,77.00
2023-05-17T03:56:02.255Z,78.00
2023-05-17T03:57:02.011Z,77.00
2023-05-17T03:58:01.965Z,77.00
2023-05-17T03:59:01.909Z,77.00
2023-05-17T04:00:02.191Z,76.00
2023-05-17T04:01:02.364Z,76.00
2023-05-17T04:02:02.013Z,76.00
2023-05-17T04:03:02.005Z,76.00
2023-05-17T04:04:02.310Z,75.00
2023-05-17T04:05:02.128Z,75.00
2023-05-17T04:06:02.736Z,76.00
2023-05-17T04:07:02.297Z,76.00
2023-05-17T04:08:02.289Z,76.00
2023-05-17T04:09:02.304Z,76.00
2023-05-17T04:10:02.286Z,75.00
2023-05-17T04:11:01.511Z,75.00
2023-05-17T04:12:01.499Z,74.00
2023-05-17T04:13:01.474Z,74.00
2023-05-17T04:14:01.366Z,74.00
2023-05-17T04:15:01.435Z,74.00
2023-05-17T04:16:01.845Z,74.00
2023-05-17T04:17:01.863Z,76.00
2023-05-17T04:18:01.918Z,76.00
2023-05-17T04:19:02.233Z,76.00
2023-05-17T04:20:01.979Z,77.00
2023-05-17T04:21:01.870Z,77.00
2023-05-17T04:22:02.589Z,78.00
2023-05-17T04:23:02.293Z,79.00
2023-05-17T04:24:02.214Z,79.00
2023-05-17T04:25:02.313Z,80.00
2023-05-17T04:26:01.944Z,80.00
2023-05-17T04:27:03.567Z,81.00
2023-05-17T04:28:02.332Z,81.00
2023-05-17T04:29:02.097Z,81.00
2023-05-17T04:30:02.019Z,80.00
2023-05-17T04:31:02.171Z,80.00
2023-05-17T04:32:02.269Z,80.00
2023-05-17T04:33:02.393Z,80.00
2023-05-17T04:34:02.421Z,81.00
2023-05-17T04:35:02.501Z,81.00
2023-05-17T04:36:02.744Z,82.00
2023-05-17T04:37:01.873Z,82.00
2023-05-17T04:38:02.225Z,82.00
2023-05-17T04:39:02.110Z,82.00
2023-05-17T04:40:01.909Z,82.00
2023-05-17T04:41:02.046Z,82.00
2023-05-17T04:42:01.675Z,83.00
2023-05-17T04:43:01.748Z,83.00
2023-05-17T04:44:01.773Z,82.00
2023-05-17T04:45:01.876Z,82.00
2023-05-17T04:46:01.669Z,82.00
2023-05-17T04:47:01.893Z,83.00
2023-05-17T04:48:01.915Z,83.00
2023-05-17T04:49:01.928Z,83.00
2023-05-17T04:50:01.701Z,84.00
2023-05-17T04:51:01.819Z,84.00
2023-05-17T04:52:03.482Z,84.00
2023-05-17T04:53:01.816Z,84.00
2023-05-17T04:54:01.881Z,83.00
2023-05-17T04:55:01.634Z,83.00
2023-05-17T04:56:01.653Z,82.00
2023-05-17T04:57:02.276Z,83.00
2023-05-17T04:58:02.058Z,83.00
2023-05-17T04:59:02.523Z,82.00
2023-05-17T05:00:02.513Z,81.00
2023-05-17T05:01:02.129Z,81.00
2023-05-17T05:02:02.743Z,81.00
2023-05-17T05:03:03.190Z,80.00
2023-05-17T05:04:03.144Z,80.00
2023-05-17T05:05:03.099Z,80.00
2023-05-17T05:06:03.107Z,81.00
2023-05-17T05:07:02.716Z,82.00
2023-05-17T05:08:02.750Z,82.00
2023-05-17T05:09:02.652Z,82.00
2023-05-17T05:10:02.866Z,82.00
2023-05-17T05:11:02.825Z,82.00
2023-05-17T05:12:02.552Z,82.00
2023-05-17T05:13:02.515Z,82.00
2023-05-17T05:14:02.575Z,83.00
2023-05-17T05:15:02.439Z,83.00
2023-05-17T05:16:02.718Z,83.00
2023-05-17T05:17:02.912Z,83.00
2023-05-17T05:18:02.500Z,83.00
2023-05-17T05:19:02.607Z,83.00
2023-05-17T05:20:02.772Z,83.00
2023-05-17T05:21:02.782Z,83.00
2023-05-17T05:22:02.879Z,82.00
2023-05-17T05:23:02.989Z,81.00
2023-05-17T05:24:02.828Z,81.00
2023-05-17T05:25:02.719Z,81.00
2023-05-17T05:26:02.876Z,81.00
2023-05-17T05:27:04.416Z,80.00
2023-05-17T05:28:03.058Z,80.00
2023-05-17T05:29:02.952Z,80.00
2023-05-17T05:30:02.968Z,79.00
2023-05-17T05:31:02.771Z,79.00
2023-05-17T05:32:02.478Z,80.00
2023-05-17T05:33:02.567Z,80.00
2023-05-17T05:34:02.783Z,80.00
2023-05-17T05:35:02.473Z,80.00
2023-05-17T05:36:02.578Z,79.00
2023-05-17T05:37:01.809Z,79.00
2023-05-17T05:38:02.168Z,78.00
2023-05-17T05:39:01.978Z,79.00
2023-05-17T05:40:02.200Z,78.00
2023-05-17T05:41:02.217Z,78.00
2023-05-17T05:42:03.050Z,79.00
2023-05-17T05:43:02.646Z,79.00
2023-05-17T05:44:02.627Z,79.00
2023-05-17T05:45:02.533Z,78.00
2023-05-17T05:46:02.632Z,78.00
2023-05-17T05:47:02.156Z,79.00
2023-05-17T05:48:02.251Z,78.00
2023-05-17T05:49:02.345Z,79.00
2023-05-17T05:50:02.018Z,79.00
2023-05-17T05:51:01.851Z,79.00
2023-05-17T05:52:02.572Z,79.00
2023-05-17T05:53:17.196Z,78.00
2023-05-17T05:54:02.142Z,78.00
2023-05-17T05:55:02.300Z,78.00
2023-05-17T05:56:02.476Z,79.00
2023-05-17T05:57:02.169Z,79.00
2023-05-17T05:58:01.924Z,79.00
2023-05-17T05:59:01.938Z,78.00
2023-05-17T06:00:01.859Z,78.00
2023-05-17T06:01:03.990Z,78.00
2023-05-17T06:02:02.721Z,79.00
2023-05-17T06:03:02.380Z,79.00
2023-05-17T06:04:02.384Z,79.00
2023-05-17T06:05:02.462Z,78.00
2023-05-17T06:06:02.248Z,78.00
2023-05-17T06:07:02.279Z,78.00
2023-05-17T06:08:02.389Z,77.00
2023-05-17T06:09:02.370Z,78.00
2023-05-17T06:10:02.341Z,78.00
2023-05-17T06:11:01.720Z,78.00
2023-05-17T06:12:02.260Z,78.00
2023-05-17T06:13:02.356Z,78.00
2023-05-17T06:14:02.101Z,79.00
2023-05-17T06:15:02.190Z,78.00
2023-05-17T06:16:01.964Z,78.00
2023-05-17T06:17:02.624Z,79.00
2023-05-17T06:18:03.085Z,79.00
2023-05-17T06:19:02.882Z,78.00
2023-05-17T06:20:03.093Z,78.00
2023-05-17T06:21:03.015Z,78.00
2023-05-17T06:22:02.191Z,78.00
2023-05-17T06:23:02.445Z,78.00
2023-05-17T06:24:04.788Z,79.00
2023-05-17T06:25:02.453Z,79.00
2023-05-17T06:26:02.633Z,79.00
2023-05-17T06:27:02.698Z,79.00
2023-05-17T06:28:03.069Z,79.00
2023-05-17T06:29:02.413Z,80.00
2023-05-17T06:30:04.878Z,80.00
2023-05-17T06:31:03.084Z,79.00
2023-05-17T06:32:01.868Z,79.00
2023-05-17T06:33:02.061Z,79.00
2023-05-17T06:34:02.060Z,79.00
2023-05-17T06:35:02.221Z,80.00
2023-05-17T06:37:02.745Z,80.00
2023-05-17T06:38:02.695Z,80.00
2023-05-17T06:39:02.771Z,80.00
2023-05-17T06:40:10.002Z,80.00
2023-05-17T06:41:02.858Z,80.00
2023-05-17T06:42:02.075Z,80.00
2023-05-17T06:43:02.329Z,79.00
2023-05-17T06:44:02.253Z,80.00
2023-05-17T06:45:02.363Z,80.00
2023-05-17T06:46:02.059Z,79.00
2023-05-17T06:47:02.546Z,79.00
2023-05-17T06:48:02.378Z,79.00
2023-05-17T06:49:02.685Z,79.00
2023-05-17T06:50:02.457Z,79.00
2023-05-17T06:51:02.324Z,79.00
2023-05-17T06:52:02.832Z,79.00
2023-05-17T06:53:02.742Z,79.00
2023-05-17T06:54:02.753Z,79.00
2023-05-17T06:55:02.605Z,79.00
2023-05-17T06:56:02.574Z,79.00
2023-05-17T06:57:03.202Z,79.00
2023-05-17T06:58:02.792Z,79.00
2023-05-17T06:59:02.585Z,79.00
2023-05-17T07:00:02.650Z,79.00
2023-05-17T07:01:02.863Z,79.00
2023-05-17T07:02:02.054Z,79.00
2023-05-17T07:03:02.286Z,78.00
2023-05-17T07:04:01.991Z,78.00
2023-05-17T07:05:02.182Z,78.00
2023-05-17T07:06:02.251Z,77.00
2023-05-17T07:07:01.923Z,77.00
2023-05-17T07:08:01.999Z,76.00
2023-05-17T07:09:02.109Z,76.00
2023-05-17T07:10:01.953Z,76.00
2023-05-17T07:11:02.341Z,75.00
2023-05-17T07:12:02.915Z,75.00
2023-05-17T07:13:02.820Z,75.00
2023-05-17T07:14:02.650Z,75.00
2023-05-17T07:15:02.711Z,75.00
2023-05-17T07:16:02.520Z,74.00
2023-05-17T07:17:02.403Z,74.00
2023-05-17T07:18:02.382Z,74.00
2023-05-17T07:19:01.955Z,74.00
2023-05-17T07:20:02.049Z,73.00
2023-05-17T07:21:02.378Z,73.00
2023-05-17T07:22:02.660Z,73.00
2023-05-17T07:23:02.708Z,73.00
2023-05-17T07:24:02.597Z,73.00
2023-05-17T07:25:03.012Z,71.00
2023-05-17T07:26:02.706Z,71.00
2023-05-17T07:27:01.933Z,72.00
2023-05-17T07:28:02.175Z,71.00
2023-05-17T07:29:01.825Z,71.00
2023-05-17T07:30:02.080Z,69.00
2023-05-17T07:31:01.715Z,69.00
2023-05-17T07:32:01.951Z,70.00
2023-05-17T07:33:01.996Z,68.00
2023-05-17T07:34:01.995Z,68.00
2023-05-17T07:35:02.168Z,68.00
2023-05-17T07:36:01.619Z,68.00
2023-05-17T07:37:02.546Z,67.00
2023-05-17T07:38:02.327Z,66.00
2023-05-17T07:39:02.086Z,66.00
2023-05-17T07:40:02.062Z,66.00
2023-05-17T07:41:02.312Z,66.00
2023-05-17T07:42:04.568Z,67.00
2023-05-17T07:43:02.681Z,66.00
2023-05-17T07:44:02.265Z,66.00
2023-05-17T07:45:02.217Z,65.00
2023-05-17T07:46:02.378Z,64.00
2023-05-17T07:47:02.851Z,64.00
2023-05-17T07:48:02.963Z,65.00
2023-05-17T07:49:02.776Z,65.00
2023-05-17T07:50:02.732Z,65.00
2023-05-17T07:51:02.656Z,65.00
2023-05-17T07:52:02.362Z,64.00
2023-05-17T07:53:01.983Z,63.00
2023-05-17T07:54:01.933Z,63.00
2023-05-17T07:55:01.849Z,63.00
2023-05-17T07:56:01.933Z,62.00
2023-05-17T07:57:03.028Z,62.00
2023-05-17T07:58:02.617Z,63.00
2023-05-17T07:59:02.979Z,64.00
2023-05-17T08:00:02.424Z,64.00
2023-05-17T08:01:02.356Z,64.00
2023-05-17T08:02:02.812Z,62.00
2023-05-17T08:03:03.509Z,63.00
2023-05-17T08:04:02.875Z,61.00
2023-05-17T08:05:02.979Z,61.00
2023-05-17T08:06:03.343Z,62.00
2023-05-17T08:07:03.380Z,62.00
2023-05-17T08:08:03.162Z,61.00
2023-05-17T08:09:03.376Z,60.00
2023-05-17T08:10:03.503Z,59.00
2023-05-17T08:11:03.400Z,57.00
2023-05-17T08:12:03.163Z,57.00
2023-05-17T08:13:03.123Z,57.00
2023-05-17T08:14:03.248Z,57.00
2023-05-17T08:15:03.011Z,57.00
2023-05-17T08:16:12.882Z,56.00
2023-05-17T08:17:03.813Z,56.00
2023-05-17T08:18:04.938Z,56.00
2023-05-17T08:19:03.969Z,56.00
2023-05-17T08:20:03.447Z,57.00
2023-05-17T08:21:03.592Z,56.00
2023-05-17T08:22:02.917Z,56.00
2023-05-17T08:23:02.824Z,55.00
2023-05-17T08:24:04.058Z,55.00
2023-05-17T08:25:02.715Z,55.00
2023-05-17T08:26:02.578Z,55.00
2023-05-17T08:27:03.297Z,54.00
2023-05-17T08:28:03.015Z,54.00
2023-05-17T08:29:03.491Z,55.00
2023-05-17T08:30:05.311Z,55.00
2023-05-17T08:31:03.288Z,55.00
2023-05-17T08:32:03.314Z,55.00
2023-05-17T08:33:03.560Z,54.00
2023-05-17T08:34:03.575Z,55.00
2023-05-17T08:35:03.283Z,56.00
2023-05-17T08:36:03.511Z,56.00
2023-05-17T08:37:03.700Z,56.00
2023-05-17T08:38:03.294Z,55.00
2023-05-17T08:39:03.532Z,56.00
2023-05-17T08:40:03.868Z,55.00
2023-05-17T08:41:03.453Z,57.00
2023-05-17T08:42:03.298Z,58.00
2023-05-17T08:43:02.766Z,59.00
2023-05-17T08:44:03.307Z,58.00
2023-05-17T08:45:02.823Z,56.00
2023-05-17T08:46:03.038Z,55.00
2023-05-17T08:47:03.355Z,53.00
2023-05-17T08:48:03.259Z,53.00
2023-05-17T08:49:03.299Z,54.00
2023-05-17T08:50:03.328Z,52.00
2023-05-17T08:51:03.424Z,52.00
2023-05-17T08:52:02.578Z,50.00
2023-05-17T08:53:03.163Z,50.00
2023-05-17T08:54:02.763Z,50.00
2023-05-17T08:55:02.528Z,50.00
2023-05-17T08:56:02.654Z,50.00
2023-05-17T08:57:02.919Z,49.00
2023-05-17T08:58:03.159Z,49.00
2023-05-17T08:59:03.344Z,49.00
2023-05-17T09:00:03.378Z,48.00
2023-05-17T09:01:02.778Z,48.00
2023-05-17T09:02:02.698Z,48.00
2023-05-17T09:03:02.707Z,48.00
2023-05-17T09:04:02.835Z,49.00
2023-05-17T09:05:03.112Z,48.00
2023-05-17T09:06:02.823Z,49.00
2023-05-17T09:07:03.334Z,47.00
2023-05-17T09:08:03.079Z,46.00
2023-05-17T09:09:02.747Z,46.00
2023-05-17T09:10:03.156Z,45.00
2023-05-17T09:11:02.860Z,47.00
2023-05-17T09:12:03.246Z,47.00
2023-05-17T09:13:03.154Z,43.00
2023-05-17T09:14:03.808Z,42.00
2023-05-17T09:15:03.722Z,45.00
2023-05-17T09:16:03.105Z,44.00
2023-05-17T09:17:03.666Z,44.00
2023-05-17T09:18:03.780Z,44.00
2023-05-17T09:19:04.040Z,43.00
2023-05-17T09:20:03.408Z,43.00
2023-05-17T09:21:03.540Z,39.00
2023-05-17T09:22:03.125Z,40.00
2023-05-17T09:23:02.894Z,40.00
2023-05-17T09:24:07.068Z,40.00
2023-05-17T09:25:02.785Z,39.00
2023-05-17T09:26:02.511Z,38.00
2023-05-17T09:27:02.988Z,40.00
2023-05-17T09:28:03.387Z,40.00
2023-05-17T09:29:02.818Z,41.00
2023-05-17T09:30:02.987Z,38.00
2023-05-17T09:31:02.849Z,38.00
2023-05-17T09:32:03.140Z,38.00
2023-05-17T09:33:03.112Z,37.00
2023-05-17T09:34:03.116Z,36.00
2023-05-17T09:35:03.173Z,37.00
2023-05-17T09:36:03.004Z,37.00
2023-05-17T09:37:03.233Z,37.00
2023-05-17T09:38:03.177Z,38.00
2023-05-17T09:39:02.722Z,38.00
2023-05-17T09:40:03.075Z,36.00
2023-05-17T09:41:03.213Z,37.00
2023-05-17T09:42:03.115Z,38.00
2023-05-17T09:43:02.997Z,39.00
2023-05-17T09:44:03.347Z,37.00
2023-05-17T09:45:03.269Z,37.00
2023-05-17T09:46:03.378Z,35.00
2023-05-17T09:47:02.730Z,38.00
2023-05-17T09:48:02.850Z,37.00
2023-05-17T09:49:02.954Z,35.00
2023-05-17T09:50:02.855Z,38.00
2023-05-17T09:51:02.918Z,37.00
2023-05-17T09:52:03.042Z,38.00
2023-05-17T09:53:03.342Z,38.00
2023-05-17T09:54:03.267Z,38.00
2023-05-17T09:55:03.479Z,38.00
2023-05-17T09:56:03.658Z,36.00
2023-05-17T09:57:03.462Z,37.00
2023-05-17T09:58:03.521Z,38.00
2023-05-17T09:59:03.356Z,38.00
2023-05-17T10:00:03.430Z,37.00
2023-05-17T10:01:03.317Z,38.00
2023-05-17T10:02:03.327Z,37.00
2023-05-17T10:03:03.048Z,39.00
2023-05-17T10:04:03.294Z,38.00
2023-05-17T10:05:03.382Z,38.00
2023-05-17T10:06:03.115Z,36.00
2023-05-17T10:07:03.025Z,36.00
2023-05-17T10:08:03.089Z,38.00
2023-05-17T10:09:02.600Z,40.00
2023-05-17T10:10:02.831Z,37.00
2023-05-17T10:11:02.503Z,37.00
2023-05-17T10:12:03.383Z,37.00
2023-05-17T10:13:03.509Z,38.00
2023-05-17T10:14:03.369Z,39.00
2023-05-17T10:15:03.235Z,38.00
2023-05-17T10:16:03.537Z,36.00
2023-05-17T10:17:02.628Z,36.00
2023-05-17T10:18:03.085Z,35.00
2023-05-17T10:19:02.879Z,35.00
2023-05-17T10:20:02.817Z,34.00
2023-05-17T10:21:02.827Z,36.00
2023-05-17T10:22:18.802Z,37.00
2023-05-17T10:23:03.294Z,35.00
2023-05-17T10:24:02.835Z,36.00
2023-05-17T10:25:03.388Z,36.00
2023-05-17T10:26:03.153Z,36.00
2023-05-17T10:27:02.846Z,34.00
2023-05-17T10:28:02.645Z,35.00
2023-05-17T10:29:02.525Z,35.00
2023-05-17T10:30:02.906Z,38.00
2023-05-17T10:31:02.856Z,36.00
2023-05-17T10:32:03.378Z,37.00
2023-05-17T10:33:03.210Z,36.00
2023-05-17T10:34:03.091Z,37.00
2023-05-17T10:35:11.548Z,36.00
2023-05-17T10:36:03.135Z,35.00
2023-05-17T10:37:03.231Z,35.00
2023-05-17T10:38:02.972Z,35.00
2023-05-17T10:39:03.154Z,34.00
2023-05-17T10:40:02.892Z,35.00
2023-05-17T10:41:03.236Z,34.00
2023-05-17T10:42:14.202Z,34.00
2023-05-17T10:43:02.725Z,35.00
2023-05-17T10:44:02.845Z,34.00
2023-05-17T10:45:02.390Z,34.00
2023-05-17T10:46:03.006Z,34.00
2023-05-17T10:47:02.878Z,33.00
2023-05-17T10:48:02.793Z,33.00
2023-05-17T10:49:02.647Z,32.00
2023-05-17T10:50:02.633Z,33.00
2023-05-17T10:51:02.536Z,35.00
2023-05-17T10:52:02.818Z,34.00
2023-05-17T10:53:03.069Z,34.00
2023-05-17T10:54:03.011Z,36.00
2023-05-17T10:55:03.347Z,33.00
2023-05-17T10:56:03.258Z,34.00
2023-05-17T10:57:03.349Z,33.00
2023-05-17T10:58:03.434Z,34.00
2023-05-17T10:59:03.731Z,34.00
2023-05-17T11:00:03.067Z,34.00
2023-05-17T11:01:03.710Z,33.00
2023-05-17T11:02:02.474Z,32.00
2023-05-17T11:03:02.534Z,31.00
2023-05-17T11:04:02.797Z,33.00
2023-05-17T11:05:02.554Z,33.00
2023-05-17T11:06:02.324Z,33.00
2023-05-17T11:07:04.860Z,34.00
2023-05-17T11:08:02.902Z,34.00
2023-05-17T11:09:03.109Z,34.00
2023-05-17T11:10:02.876Z,33.00
2023-05-17T11:11:02.870Z,33.00
2023-05-17T11:12:02.638Z,34.00
2023-05-17T11:13:02.599Z,32.00
2023-05-17T11:14:02.052Z,32.00
2023-05-17T11:15:02.330Z,33.00
2023-05-17T11:16:02.102Z,30.00
2023-05-17T11:17:02.124Z,32.00
2023-05-17T11:18:02.448Z,32.00
2023-05-17T11:19:02.811Z,31.00
2023-05-17T11:20:02.737Z,30.00
2023-05-17T11:21:02.472Z,31.00
2023-05-17T11:22:03.168Z,31.00
2023-05-17T11:23:02.986Z,32.00
2023-05-17T11:24:03.154Z,31.00
2023-05-17T11:25:02.949Z,29.00
2023-05-17T11:26:12.894Z,32.00
2023-05-17T11:27:02.751Z,31.00
2023-05-17T11:28:02.353Z,30.00
2023-05-17T11:29:02.529Z,31.00
2023-05-17T11:30:02.596Z,31.00
2023-05-17T11:31:02.441Z,30.00
2023-05-17T11:32:02.764Z,31.00
2023-05-17T11:33:02.968Z,32.00
2023-05-17T11:34:02.905Z,30.00
2023-05-17T11:35:02.556Z,33.00
2023-05-17T11:36:02.741Z,33.00
2023-05-17T11:37:02.744Z,35.00
2023-05-17T11:38:03.041Z,33.00
2023-05-17T11:39:08.011Z,33.00
2023-05-17T11:40:02.870Z,32.00
2023-05-17T11:41:04.757Z,32.00
2023-05-17T11:42:02.211Z,33.00
2023-05-17T11:43:02.660Z,33.00
2023-05-17T11:44:02.381Z,32.00
2023-05-17T11:45:02.664Z,32.00
2023-05-17T11:46:02.502Z,32.00
2023-05-17T11:47:02.833Z,32.00
2023-05-17T11:48:02.434Z,32.00
2023-05-17T11:49:02.365Z,31.00
2023-05-17T11:50:02.331Z,32.00
2023-05-17T11:51:02.865Z,31.00
2023-05-17T11:52:03.359Z,32.00
2023-05-17T11:53:03.514Z,32.00
2023-05-17T11:54:02.913Z,32.00
2023-05-17T11:55:03.257Z,33.00
2023-05-17T11:56:02.835Z,32.00
2023-05-17T11:57:02.212Z,31.00
2023-05-17T11:58:02.373Z,31.00
2023-05-17T11:59:02.523Z,31.00
2023-05-17T12:00:02.547Z,31.00
2023-05-17T12:01:02.753Z,30.00
2023-05-17T12:02:02.796Z,30.00
2023-05-17T12:03:02.788Z,32.00
2023-05-17T12:04:02.464Z,32.00
2023-05-17T12:05:03.074Z,33.00
2023-05-17T12:06:02.887Z,32.00
2023-05-17T12:07:02.684Z,30.00
2023-05-17T12:08:02.624Z,29.00
2023-05-17T12:09:02.778Z,31.00
2023-05-17T12:10:02.966Z,30.00
2023-05-17T12:11:03.098Z,30.00
2023-05-17T12:12:03.811Z,31.00
2023-05-17T12:13:03.329Z,31.00
2023-05-17T12:14:03.610Z,30.00
2023-05-17T12:15:03.405Z,30.00
2023-05-17T12:16:03.688Z,30.00
2023-05-17T12:17:03.350Z,29.00
2023-05-17T12:18:03.140Z,30.00
2023-05-17T12:19:03.609Z,31.00
2023-05-17T12:20:03.053Z,30.00
2023-05-17T12:21:03.331Z,30.00
2023-05-17T12:22:03.237Z,28.00
2023-05-17T12:23:03.418Z,30.00
2023-05-17T12:24:03.345Z,28.00
2023-05-17T12:25:03.527Z,29.00
2023-05-17T12:26:03.381Z,28.00
2023-05-17T12:27:03.346Z,29.00
2023-05-17T12:28:03.644Z,29.00
2023-05-17T12:29:03.535Z,29.00
2023-05-17T12:30:03.447Z,29.00
2023-05-17T12:31:03.931Z,30.00
2023-05-17T12:32:03.099Z,30.00
2023-05-17T12:33:03.442Z,30.00
2023-05-17T12:34:03.251Z,28.00
2023-05-17T12:35:03.072Z,27.00
2023-05-17T12:36:03.153Z,28.00
2023-05-17T12:37:03.406Z,28.00
2023-05-17T12:38:03.840Z,29.00
2023-05-17T12:39:03.321Z,28.00
2023-05-17T12:40:03.864Z,28.00
2023-05-17T12:41:03.805Z,30.00
2023-05-17T12:42:02.916Z,29.00
2023-05-17T12:43:03.560Z,28.00
2023-05-17T12:44:14.873Z,27.00
2023-05-17T12:45:03.185Z,27.00
2023-05-17T12:46:03.897Z,29.00
2023-05-17T12:47:03.495Z,28.00
2023-05-17T12:48:03.425Z,29.00
2023-05-17T12:49:04.047Z,29.00
2023-05-17T12:50:03.548Z,28.00
2023-05-17T12:51:04.013Z,30.00
2023-05-17T12:52:03.141Z,29.00
2023-05-17T12:53:03.496Z,28.00